Time;durP1;ratioP1;P1;durP2;ratioP2;P2;SDS_P1;SDS_P2;PMS_P1;PMS_P2;Temp;Humidity;BMP_temperature;BMP_pressure;BME280_temperature;BME280_humidity;BME280_pressure;Samples;Min_cycle;Max_cycle;Signal;HPM_P1;HPM_P2
2022/07/14 03:01:36;;;;;;;0.70;0.50;;;24.10;50.80;;;;;;5586286;23;20596;-74
2022/07/14 03:04:02;;;;;;;0.70;0.50;;;24.10;50.80;;;;;;4957126;29;20496;-74
2022/07/14 03:06:29;;;;;;;0.70;0.60;;;24.00;50.40;;;;;;4957054;29;20443;-71
2022/07/14 03:08:56;;;;;;;0.70;0.60;;;23.80;50.60;;;;;;4957037;29;20449;-71
2022/07/14 03:11:23;;;;;;;0.60;0.50;;;23.90;50.40;;;;;;4956644;29;20477;-71
2022/07/14 03:13:50;;;;;;;0.70;0.50;;;23.90;50.70;;;;;;4956890;29;20537;-71
2022/07/14 03:16:17;;;;;;;0.60;0.50;;;23.80;50.40;;;;;;4957811;29;20867;-72
2022/07/14 03:18:45;;;;;;;0.80;0.60;;;23.70;50.70;;;;;;4956546;29;20950;-72
2022/07/14 03:21:13;;;;;;;0.70;0.60;;;23.40;51.20;;;;;;4956751;29;20475;-73
2022/07/14 03:23:40;;;;;;;0.70;0.50;;;23.20;51.30;;;;;;4956735;29;20446;-72
2022/07/14 03:26:07;;;;;;;0.70;0.60;;;23.00;52.30;;;;;;4956991;28;20451;-72
2022/07/14 03:28:34;;;;;;;0.63;0.50;;;22.90;52.80;;;;;;4956386;29;20946;-72
2022/07/14 03:31:00;;;;;;;0.70;0.60;;;22.90;52.90;;;;;;4956542;29;20466;-72
2022/07/14 03:33:27;;;;;;;0.70;0.50;;;22.80;52.50;;;;;;4956579;28;20554;-72
2022/07/14 03:35:55;;;;;;;0.70;0.60;;;22.70;52.80;;;;;;4956194;29;20873;-72
2022/07/14 03:38:22;;;;;;;0.70;0.57;;;22.70;52.70;;;;;;4956160;29;21009;-71
2022/07/14 03:40:48;;;;;;;0.70;0.60;;;22.80;52.80;;;;;;4956347;29;20474;-72
2022/07/14 03:43:15;;;;;;;0.70;0.57;;;22.80;52.90;;;;;;4956371;29;20492;-72
2022/07/14 03:45:42;;;;;;;0.63;0.50;;;22.80;51.60;;;;;;4956200;29;20505;-72
2022/07/14 03:48:08;;;;;;;0.70;0.50;;;22.90;51.70;;;;;;4956776;29;20458;-72
2022/07/14 03:50:36;;;;;;;0.70;0.50;;;22.90;50.90;;;;;;4955938;29;20439;-72
2022/07/14 03:53:05;;;;;;;0.70;0.50;;;22.80;50.70;;;;;;4956162;29;20529;-72
2022/07/14 03:55:32;;;;;;;0.60;0.50;;;22.80;50.90;;;;;;4956071;29;20486;-72
2022/07/14 03:57:59;;;;;;;0.70;0.60;;;22.90;50.20;;;;;;4956087;29;20451;-72
2022/07/14 04:00:26;;;;;;;0.70;0.60;;;23.00;50.40;;;;;;4956001;29;20487;-72
2022/07/14 04:02:52;;;;;;;1.70;0.60;;;23.00;50.40;;;;;;4955692;29;20514;-73
2022/07/14 04:05:19;;;;;;;0.70;0.50;;;23.10;50.40;;;;;;4955203;28;20443;-72
2022/07/14 04:07:46;;;;;;;0.70;0.50;;;23.20;50.10;;;;;;4957036;29;20459;-72
2022/07/14 04:10:14;;;;;;;0.70;0.60;;;23.20;49.70;;;;;;4955919;29;20446;-72
2022/07/14 04:12:40;;;;;;;0.70;0.60;;;23.20;50.40;;;;;;4955789;29;20525;-73
2022/07/14 04:15:08;;;;;;;0.70;0.50;;;23.30;49.60;;;;;;4955763;29;20478;-72
2022/07/14 04:17:34;;;;;;;0.67;0.50;;;23.30;50.10;;;;;;4955769;29;20538;-72
2022/07/14 04:20:01;;;;;;;0.70;0.60;;;23.40;49.90;;;;;;4955792;28;20534;-72
2022/07/14 04:22:28;;;;;;;0.70;0.50;;;23.50;50.50;;;;;;4955637;29;20481;-72
2022/07/14 04:24:55;;;;;;;0.70;0.50;;;23.60;50.30;;;;;;4955390;29;20490;-72
2022/07/14 04:27:23;;;;;;;0.70;0.57;;;23.70;50.10;;;;;;4955351;29;20947;-72
2022/07/14 04:29:50;;;;;;;0.70;0.50;;;23.70;49.70;;;;;;4955293;29;20935;-72
2022/07/14 04:32:17;;;;;;;0.70;0.57;;;23.70;50.10;;;;;;4955496;29;20477;-72
2022/07/14 04:34:44;;;;;;;0.67;0.50;;;23.80;49.90;;;;;;4955466;29;20533;-72
2022/07/14 04:37:12;;;;;;;0.90;0.60;;;23.90;49.60;;;;;;4955543;29;20542;-72
2022/07/14 04:39:38;;;;;;;1.30;0.60;;;24.00;49.40;;;;;;4955437;29;20949;-72
2022/07/14 04:42:05;;;;;;;0.70;0.50;;;24.10;49.50;;;;;;4955401;29;20898;-72
2022/07/14 04:44:34;;;;;;;0.67;0.50;;;24.10;49.00;;;;;;4955427;29;20506;-72
2022/07/14 04:47:01;;;;;;;0.70;0.60;;;24.10;49.30;;;;;;4955386;29;20451;-73
2022/07/14 04:52:11;;;;;;;0.70;0.50;;;24.40;49.90;;;;;;4955228;29;20448;-72
2022/07/14 04:54:38;;;;;;;0.60;0.50;;;24.50;49.70;;;;;;4955255;29;20608;-72
2022/07/14 04:57:06;;;;;;;0.70;0.50;;;24.70;49.80;;;;;;4955566;29;20446;-73
2022/07/14 04:59:34;;;;;;;0.70;0.53;;;24.80;50.20;;;;;;4955325;29;20549;-72
2022/07/14 05:02:01;;;;;;;0.70;0.60;;;24.90;50.50;;;;;;4955015;29;20479;-72
2022/07/14 05:04:29;;;;;;;0.70;0.60;;;25.10;49.70;;;;;;4955247;29;20482;-73
2022/07/14 05:06:55;;;;;;;0.70;0.60;;;25.20;50.10;;;;;;4955234;29;20457;-73
2022/07/14 05:09:24;;;;;;;0.70;0.57;;;25.40;50.30;;;;;;4955150;29;20447;-73
2022/07/14 05:11:51;;;;;;;0.60;0.50;;;25.50;50.50;;;;;;4955142;29;20562;-73
2022/07/14 05:14:18;;;;;;;0.70;0.57;;;25.60;49.30;;;;;;4955136;29;20542;-73
2022/07/14 05:16:48;;;;;;;0.70;0.50;;;25.70;49.40;;;;;;4957512;28;20458;-73
2022/07/14 05:19:15;;;;;;;0.70;0.50;;;25.80;49.60;;;;;;4959067;29;20445;-73
2022/07/14 05:21:42;;;;;;;0.60;0.50;;;25.90;48.40;;;;;;4958886;29;20884;-73
2022/07/14 05:24:09;;;;;;;0.60;0.50;;;26.00;48.10;;;;;;4958617;29;20486;-73
2022/07/14 05:26:36;;;;;;;0.60;0.50;;;26.20;47.80;;;;;;4958834;29;20973;-73
2022/07/14 05:29:03;;;;;;;0.63;0.50;;;26.30;48.10;;;;;;4958822;29;20450;-73
2022/07/14 05:31:30;;;;;;;0.67;0.50;;;26.30;47.60;;;;;;4958664;29;20498;-73
2022/07/14 05:33:58;;;;;;;0.70;0.50;;;26.40;48.00;;;;;;4958622;29;20533;-73
2022/07/14 05:36:24;;;;;;;0.70;0.60;;;26.60;47.10;;;;;;4959525;29;20498;-73
2022/07/14 05:38:51;;;;;;;0.60;0.50;;;26.70;46.90;;;;;;4958627;29;20533;-73
2022/07/14 05:41:19;;;;;;;0.70;0.50;;;26.70;46.60;;;;;;4958583;29;20462;-73
2022/07/14 05:43:46;;;;;;;0.70;0.50;;;26.70;47.20;;;;;;4958353;29;20978;-73
2022/07/14 05:46:13;;;;;;;0.60;0.50;;;26.80;46.20;;;;;;4958273;28;20993;-73
2022/07/14 05:48:40;;;;;;;0.60;0.50;;;26.70;47.10;;;;;;4958447;29;20482;-74
2022/07/14 05:51:11;;;;;;;0.60;0.50;;;26.70;47.50;;;;;;4958359;29;20474;-74
2022/07/14 05:53:38;;;;;;;0.60;0.50;;;26.70;46.20;;;;;;4958432;29;20819;-73
2022/07/14 05:56:07;;;;;;;0.70;0.53;;;26.50;47.30;;;;;;4958294;29;20545;-73
2022/07/14 05:58:34;;;;;;;0.60;0.50;;;26.60;47.30;;;;;;4958025;28;20886;-73
2022/07/14 06:01:01;;;;;;;0.60;0.50;;;26.50;47.40;;;;;;4957619;29;20998;-74
2022/07/14 06:03:27;;;;;;;0.60;0.50;;;26.50;47.00;;;;;;4958227;29;20490;-73
2022/07/14 06:05:54;;;;;;;0.67;0.50;;;26.50;47.20;;;;;;4957823;29;20954;-73
2022/07/14 06:08:22;;;;;;;0.90;0.60;;;26.40;46.60;;;;;;4958354;29;20453;-73
2022/07/14 06:10:49;;;;;;;0.60;0.50;;;26.50;46.70;;;;;;4958035;29;20592;-72
2022/07/14 06:13:16;;;;;;;0.60;0.50;;;26.70;47.30;;;;;;4957710;29;20946;-72
2022/07/14 06:15:44;;;;;;;0.90;0.70;;;26.80;47.60;;;;;;4957928;29;20643;-72
2022/07/14 06:18:11;;;;;;;0.70;0.60;;;26.70;46.90;;;;;;4957900;29;20562;-72
2022/07/14 06:20:40;;;;;;;0.60;0.50;;;26.90;46.80;;;;;;4958282;29;20554;-72
2022/07/14 06:23:09;;;;;;;0.70;0.50;;;26.90;46.80;;;;;;4957799;29;20451;-73
2022/07/14 06:25:37;;;;;;;0.70;0.60;;;26.90;45.90;;;;;;4957814;29;20447;-73
2022/07/14 06:28:04;;;;;;;0.60;0.50;;;26.60;46.90;;;;;;4956945;28;20865;-73
2022/07/14 06:30:31;;;;;;;0.60;0.50;;;26.60;47.40;;;;;;4957635;29;20447;-72
2022/07/14 06:32:57;;;;;;;0.60;0.50;;;26.70;47.20;;;;;;4957720;29;20808;-72
2022/07/14 06:35:24;;;;;;;0.70;0.60;;;26.60;47.50;;;;;;4957569;29;20514;-72
2022/07/14 06:37:52;;;;;;;1.00;0.60;;;26.90;48.00;;;;;;4957865;29;20443;-72
2022/07/14 06:40:19;;;;;;;0.60;0.50;;;27.10;48.90;;;;;;4957217;29;21021;-73
2022/07/14 06:42:47;;;;;;;0.70;0.60;;;27.30;47.10;;;;;;4957425;29;20474;-72
2022/07/14 06:45:15;;;;;;;0.70;0.50;;;27.50;47.00;;;;;;4957183;29;21009;-73
2022/07/14 06:47:42;;;;;;;0.60;0.50;;;27.70;47.20;;;;;;4957410;29;20451;-73
2022/07/14 06:50:10;;;;;;;1.00;0.57;;;27.60;46.70;;;;;;4957371;29;20514;-72
2022/07/14 06:52:37;;;;;;;0.90;0.53;;;27.40;47.50;;;;;;4957301;29;20475;-72
2022/07/14 06:55:06;;;;;;;0.90;0.63;;;27.40;48.20;;;;;;4957198;29;20491;-72
2022/07/14 06:57:32;;;;;;;0.60;0.50;;;27.40;48.40;;;;;;4957486;28;20447;-72
2022/07/14 07:00:01;;;;;;;0.70;0.60;;;27.30;48.50;;;;;;4957259;29;20500;-72
2022/07/14 07:02:27;;;;;;;0.67;0.53;;;27.30;49.50;;;;;;4956721;29;20497;-73
2022/07/14 07:07:35;;;;;;;0.70;0.60;;;27.50;49.00;;;;;;4956674;29;20462;-72
2022/07/14 07:10:02;;;;;;;0.83;0.60;;;27.40;49.00;;;;;;4956975;29;20442;-72
2022/07/14 07:12:29;;;;;;;0.70;0.53;;;27.50;49.50;;;;;;4956892;29;20521;-73
2022/07/14 07:14:56;;;;;;;0.60;0.50;;;27.80;48.40;;;;;;4956639;28;21005;-73
2022/07/14 07:17:24;;;;;;;0.70;0.50;;;28.10;49.30;;;;;;4956877;29;20795;-72
2022/07/14 07:19:50;;;;;;;0.70;0.60;;;28.30;48.10;;;;;;4956548;29;20486;-72
2022/07/14 07:22:17;;;;;;;0.70;0.50;;;28.50;48.60;;;;;;4956394;29;20897;-73
2022/07/14 07:24:43;;;;;;;0.63;0.50;;;28.40;49.20;;;;;;4956713;29;20447;-73
2022/07/14 07:27:10;;;;;;;0.90;0.60;;;28.60;49.00;;;;;;4956734;29;20450;-73
2022/07/14 07:29:37;;;;;;;0.70;0.60;;;29.00;48.60;;;;;;4956615;29;20483;-73
2022/07/14 07:32:04;;;;;;;0.70;0.57;;;29.50;49.30;;;;;;4956539;29;20557;-72
2022/07/14 07:34:33;;;;;;;0.80;0.60;;;30.00;48.10;;;;;;4956402;29;20486;-73
2022/07/14 07:37:00;;;;;;;0.97;0.60;;;30.30;44.80;;;;;;4956217;29;20962;-73
2022/07/14 07:39:26;;;;;;;0.70;0.60;;;30.40;44.60;;;;;;4956359;28;20442;-73
2022/07/14 07:41:55;;;;;;;0.70;0.60;;;30.70;42.60;;;;;;4956407;29;20508;-73
2022/07/14 07:44:22;;;;;;;0.90;0.60;;;30.90;43.50;;;;;;4956423;29;20462;-72
2022/07/14 07:46:48;;;;;;;0.60;0.60;;;30.90;42.40;;;;;;4956361;28;20534;-72
2022/07/14 07:49:15;;;;;;;0.70;0.50;;;31.00;44.20;;;;;;4956266;29;20498;-72
2022/07/14 07:51:43;;;;;;;0.70;0.50;;;31.00;41.80;;;;;;4956193;29;20885;-72
2022/07/14 07:54:09;;;;;;;0.70;0.60;;;31.00;43.30;;;;;;4956154;29;20450;-73
2022/07/14 07:56:36;;;;;;;0.67;0.53;;;31.20;42.10;;;;;;4956021;29;20516;-72
2022/07/14 07:59:03;;;;;;;0.90;0.60;;;31.50;41.20;;;;;;4956086;29;20501;-73
2022/07/14 08:01:29;;;;;;;1.07;0.50;;;31.50;39.60;;;;;;4955787;29;20482;-73
2022/07/14 08:03:56;;;;;;;0.80;0.70;;;31.60;40.20;;;;;;4955968;29;20451;-73
2022/07/14 08:06:23;;;;;;;0.63;0.50;;;31.70;39.90;;;;;;4955922;29;20482;-73
2022/07/14 08:08:51;;;;;;;0.73;0.60;;;31.80;40.60;;;;;;4955842;29;20859;-73
2022/07/14 08:11:17;;;;;;;1.53;0.60;;;32.40;39.90;;;;;;4955727;29;20975;-73
2022/07/14 08:13:44;;;;;;;0.70;0.60;;;32.80;39.40;;;;;;4955851;29;20506;-73
2022/07/14 08:16:10;;;;;;;0.60;0.60;;;32.80;39.90;;;;;;4955716;29;20530;-72
2022/07/14 08:18:37;;;;;;;0.60;0.50;;;32.80;40.50;;;;;;4955738;29;20455;-73
2022/07/14 08:21:04;;;;;;;0.80;0.60;;;32.60;40.30;;;;;;4956100;29;20891;-73
2022/07/14 08:23:30;;;;;;;0.67;0.57;;;32.40;39.90;;;;;;4955960;28;20505;-73
2022/07/14 08:25:58;;;;;;;0.70;0.60;;;32.10;40.80;;;;;;4955614;29;20494;-73
2022/07/14 08:28:25;;;;;;;0.70;0.60;;;32.00;41.10;;;;;;4955609;29;20458;-73
2022/07/14 08:30:52;;;;;;;0.70;0.60;;;32.00;39.60;;;;;;4955234;29;20994;-73
2022/07/14 08:33:18;;;;;;;0.70;0.60;;;31.60;42.00;;;;;;4955504;29;20454;-72
2022/07/14 08:35:47;;;;;;;0.63;0.57;;;31.40;42.80;;;;;;4955445;29;20483;-72
2022/07/14 08:38:14;;;;;;;0.70;0.50;;;31.50;42.50;;;;;;4955966;29;20451;-72
2022/07/14 08:40:41;;;;;;;0.70;0.57;;;31.30;42.50;;;;;;4955404;29;20450;-72
2022/07/14 08:43:11;;;;;;;0.70;0.60;;;31.40;42.70;;;;;;4955453;29;20442;-72
2022/07/14 08:45:42;;;;;;;0.70;0.60;;;31.50;43.50;;;;;;4955548;28;20489;-72
2022/07/14 08:48:09;;;;;;;1.00;0.60;;;31.30;43.80;;;;;;4955458;28;20510;-72
2022/07/14 08:50:37;;;;;;;0.67;0.60;;;31.50;43.20;;;;;;4955606;28;20506;-72
2022/07/14 08:53:04;;;;;;;0.60;0.50;;;31.60;44.70;;;;;;4955301;29;20447;-72
2022/07/14 08:55:32;;;;;;;0.70;0.60;;;31.70;42.50;;;;;;4955242;29;20492;-72
2022/07/14 08:57:58;;;;;;;0.80;0.53;;;31.40;42.10;;;;;;4955265;29;20502;-72
2022/07/14 09:00:26;;;;;;;0.80;0.67;;;31.50;42.00;;;;;;4955116;29;20571;-72
2022/07/14 09:02:55;;;;;;;0.80;0.67;;;31.50;39.20;;;;;;4954860;29;20512;-73
2022/07/14 09:05:22;;;;;;;0.67;0.60;;;31.60;40.80;;;;;;4955208;29;20447;-73
2022/07/14 09:07:54;;;;;;;0.70;0.50;;;31.70;40.10;;;;;;4955247;29;20459;-72
2022/07/14 09:10:25;;;;;;;0.60;0.50;;;31.80;40.50;;;;;;4955217;28;20526;-72
2022/07/14 09:13:08;;;;;;;1.43;0.67;;;32.00;39.50;;;;;;4955169;29;20498;-72
2022/07/14 09:15:45;;;;;;;1.00;0.60;;;32.00;40.00;;;;;;4956350;29;20529;-72
2022/07/14 09:18:20;;;;;;;1.47;0.60;;;32.30;38.80;;;;;;4955098;29;20438;-72
2022/07/14 09:20:47;;;;;;;0.70;0.60;;;32.50;37.40;;;;;;4955064;29;20536;-74
2022/07/14 09:23:14;;;;;;;0.90;0.60;;;32.60;37.50;;;;;;4955036;29;20474;-72
2022/07/14 09:25:40;;;;;;;0.63;0.53;;;32.80;38.40;;;;;;4955009;29;20498;-73
2022/07/14 09:28:07;;;;;;;0.77;0.50;;;32.70;37.60;;;;;;4955013;29;20450;-72
2022/07/14 09:30:35;;;;;;;0.63;0.53;;;32.60;38.10;;;;;;4955728;29;20849;-72
2022/07/14 09:33:03;;;;;;;0.60;0.50;;;32.90;38.80;;;;;;4954961;29;20502;-73
2022/07/14 09:35:41;;;;;;;0.70;0.60;;;33.20;35.10;;;;;;4954849;29;20483;-73
2022/07/14 09:38:17;;;;;;;0.77;0.60;;;33.20;34.70;;;;;;4954961;29;20435;-72
2022/07/14 09:40:44;;;;;;;0.70;0.60;;;33.10;35.20;;;;;;4954896;28;20474;-73
2022/07/14 09:43:13;;;;;;;0.70;0.50;;;33.10;35.10;;;;;;4954901;29;20447;-73
2022/07/14 09:45:45;;;;;;;0.70;0.57;;;33.00;34.30;;;;;;4954881;29;20455;-73
2022/07/14 09:48:13;;;;;;;1.53;0.80;;;33.00;34.70;;;;;;4954532;29;20907;-72
2022/07/14 09:50:48;;;;;;;0.70;0.60;;;33.10;35.70;;;;;;4954775;28;20457;-73
2022/07/14 09:53:19;;;;;;;0.70;0.60;;;33.30;35.30;;;;;;4954764;29;20501;-73
2022/07/14 09:55:55;;;;;;;1.10;0.60;;;33.40;34.70;;;;;;4954714;29;20569;-73
2022/07/14 09:58:22;;;;;;;0.60;0.50;;;33.50;35.40;;;;;;4954778;29;20436;-72
2022/07/14 10:00:59;;;;;;;1.10;0.60;;;33.70;34.20;;;;;;4954438;29;20474;-72
2022/07/14 10:03:28;;;;;;;0.70;0.60;;;33.90;34.60;;;;;;4956350;28;20772;-72
2022/07/14 10:05:55;;;;;;;0.60;0.50;;;34.10;34.30;;;;;;4958230;29;20541;-73
2022/07/14 10:08:25;;;;;;;0.70;0.50;;;34.10;34.30;;;;;;4958124;29;20451;-73
2022/07/14 10:10:54;;;;;;;1.20;0.60;;;34.20;34.20;;;;;;4958022;29;20482;-73
2022/07/14 10:13:22;;;;;;;0.60;0.60;;;34.10;33.00;;;;;;4958117;28;20484;-73
2022/07/14 10:15:50;;;;;;;0.60;0.60;;;34.10;33.80;;;;;;4958393;29;20483;-72
2022/07/14 10:18:19;;;;;;;0.60;0.50;;;34.20;33.20;;;;;;4957965;29;20457;-73
2022/07/14 10:20:47;;;;;;;0.80;0.60;;;34.30;34.10;;;;;;4957924;29;20470;-73
2022/07/14 10:23:14;;;;;;;0.70;0.60;;;34.40;36.00;;;;;;4957908;28;20478;-73
2022/07/14 10:25:41;;;;;;;0.70;0.60;;;34.50;33.50;;;;;;4957778;29;20450;-73
2022/07/14 10:28:08;;;;;;;1.00;0.50;;;34.20;33.20;;;;;;4957567;29;20980;-73
2022/07/14 10:30:41;;;;;;;1.10;0.60;;;34.00;31.80;;;;;;4957736;29;20450;-73
2022/07/14 10:33:16;;;;;;;0.60;0.50;;;34.10;33.00;;;;;;4957908;29;20493;-73
2022/07/14 10:35:55;;;;;;;0.60;0.57;;;33.80;33.20;;;;;;4957597;29;20493;-72
2022/07/14 10:38:38;;;;;;;0.70;0.60;;;33.90;33.60;;;;;;4957633;29;20438;-74
2022/07/14 10:41:12;;;;;;;0.80;0.60;;;34.10;33.20;;;;;;4957561;29;20470;-73
2022/07/14 10:43:56;;;;;;;0.60;0.50;;;34.10;32.40;;;;;;4957588;29;20435;-73
2022/07/14 10:46:42;;;;;;;0.60;0.50;;;34.10;33.10;;;;;;4957138;29;20843;-72
2022/07/14 10:49:10;;;;;;;0.60;0.57;;;34.50;34.30;;;;;;4957107;29;20545;-74
2022/07/14 10:51:45;;;;;;;0.60;0.50;;;34.80;32.40;;;;;;4957262;29;20466;-73
2022/07/14 10:54:14;;;;;;;0.60;0.50;;;34.60;31.80;;;;;;4957419;28;20430;-73
2022/07/14 10:56:43;;;;;;;0.73;0.53;;;34.50;33.00;;;;;;4957190;29;20494;-72
2022/07/14 10:59:30;;;;;;;0.60;0.50;;;34.70;33.60;;;;;;4957311;29;20446;-72
2022/07/14 11:02:35;;;;;;;0.60;0.50;;;35.00;32.70;;;;;;4956984;29;20482;-72
2022/07/14 11:05:10;;;;;;;0.70;0.60;;;35.00;31.50;;;;;;4956812;29;20553;-72
2022/07/14 11:07:41;;;;;;;0.70;0.50;;;35.20;32.90;;;;;;4957135;28;20526;-73
2022/07/14 11:11:01;;;;;;;0.63;0.53;;;35.10;32.80;;;;;;4956780;29;20926;-73
2022/07/14 11:13:29;;;;;;;0.60;0.50;;;34.90;32.50;;;;;;4956673;28;20430;-73
2022/07/14 11:15:57;;;;;;;0.70;0.60;;;35.00;33.10;;;;;;4957362;28;20940;-72
2022/07/14 11:18:31;;;;;;;0.70;0.60;;;34.60;32.50;;;;;;4957093;29;20455;-72
2022/07/14 11:21:01;;;;;;;0.70;0.60;;;34.50;32.80;;;;;;4956928;29;20565;-73
2022/07/14 11:23:30;;;;;;;0.67;0.60;;;34.70;33.70;;;;;;4956471;29;20834;-73
2022/07/14 11:26:00;;;;;;;0.60;0.50;;;34.80;33.10;;;;;;4956766;29;20450;-73
2022/07/14 11:28:38;;;;;;;0.70;0.60;;;35.00;32.90;;;;;;4956960;29;20442;-72
2022/07/14 11:31:16;;;;;;;1.13;0.60;;;35.30;33.40;;;;;;4956605;28;20469;-73
2022/07/14 11:36:26;;;;;;;0.70;0.50;;;35.50;33.20;;;;;;4914477;28;20477;-73
2022/07/14 11:39:21;;;;;;;2.60;0.60;;;35.60;32.90;;;;;;4956492;29;20438;-72
2022/07/14 11:41:50;;;;;;;0.80;0.63;;;35.60;32.70;;;;;;4956469;29;20477;-72
2022/07/14 11:44:51;;;;;;;0.87;0.60;;;35.60;32.00;;;;;;4956049;29;20968;-72
2022/07/14 11:47:20;;;;;;;1.53;0.60;;;35.30;32.90;;;;;;4915386;28;20458;-73
2022/07/14 11:49:56;;;;;;;0.70;0.60;;;35.30;33.10;;;;;;4956106;29;20454;-72
2022/07/14 11:52:34;;;;;;;0.70;0.70;;;35.30;34.10;;;;;;4956172;29;20521;-72
2022/07/14 11:55:05;;;;;;;0.83;0.60;;;35.10;34.10;;;;;;4956137;29;20531;-73
2022/07/14 11:57:32;;;;;;;0.70;0.60;;;35.10;33.90;;;;;;4955776;29;20471;-73
2022/07/14 12:00:06;;;;;;;0.60;0.50;;;35.30;34.30;;;;;;4956041;29;20450;-73
2022/07/14 12:02:35;;;;;;;1.10;0.50;;;35.60;34.60;;;;;;4955808;29;20524;-72
2022/07/14 12:05:02;;;;;;;1.43;0.60;;;35.90;32.90;;;;;;4955640;29;20489;-73
2022/07/14 12:07:45;;;;;;;1.00;0.77;;;36.00;33.50;;;;;;4956517;29;20529;-73
2022/07/14 12:10:14;;;;;;;0.70;0.50;;;35.90;33.10;;;;;;4955935;29;20434;-72
2022/07/14 12:12:42;;;;;;;0.60;0.50;;;36.00;32.90;;;;;;4955809;29;20497;-72
2022/07/14 12:15:11;;;;;;;0.80;0.60;;;36.00;33.20;;;;;;4955806;29;20510;-73
2022/07/14 12:17:47;;;;;;;1.07;0.70;;;36.20;33.90;;;;;;4955762;29;20490;-73
2022/07/14 12:20:14;;;;;;;0.60;0.50;;;36.30;32.70;;;;;;4955712;29;20449;-73
2022/07/14 12:22:44;;;;;;;1.27;0.50;;;36.50;33.70;;;;;;4955672;29;20525;-72
2022/07/14 12:25:26;;;;;;;0.60;0.50;;;36.50;33.70;;;;;;4955099;28;20442;-73
2022/07/14 12:27:53;;;;;;;1.00;0.60;;;36.80;32.70;;;;;;4956709;29;20430;-73
2022/07/14 12:30:20;;;;;;;0.70;0.60;;;36.70;32.40;;;;;;4955597;29;20454;-73
2022/07/14 12:32:52;;;;;;;1.00;0.60;;;36.70;33.10;;;;;;4955197;29;20981;-73
2022/07/14 12:35:20;;;;;;;0.73;0.60;;;36.80;32.90;;;;;;4955638;29;20876;-73
2022/07/14 12:37:47;;;;;;;0.70;0.60;;;36.80;30.20;;;;;;4955350;29;20486;-72
2022/07/14 12:40:14;;;;;;;0.80;0.60;;;36.60;30.50;;;;;;4955397;29;20450;-73
2022/07/14 12:42:42;;;;;;;0.70;0.60;;;36.50;31.70;;;;;;4955343;29;20565;-73
2022/07/14 12:45:09;;;;;;;0.70;0.50;;;36.60;32.60;;;;;;4955421;29;20509;-73
2022/07/14 12:47:49;;;;;;;1.20;0.60;;;36.80;32.70;;;;;;4955456;29;20454;-73
2022/07/14 12:50:19;;;;;;;1.10;0.60;;;36.90;32.10;;;;;;4955537;28;20462;-73
2022/07/14 12:52:50;;;;;;;0.80;0.60;;;37.00;32.10;;;;;;4955050;29;20985;-74
2022/07/14 12:55:31;;;;;;;1.10;0.60;;;37.00;32.30;;;;;;4955088;28;21024;-73
2022/07/14 12:58:04;;;;;;;0.60;0.50;;;37.00;32.80;;;;;;4954987;29;20470;-73
2022/07/14 13:00:33;;;;;;;0.70;0.50;;;36.70;32.30;;;;;;4955200;29;20509;-73
2022/07/14 13:03:11;;;;;;;0.60;0.50;;;36.50;33.00;;;;;;4955072;29;20458;-73
2022/07/14 13:05:38;;;;;;;0.80;0.57;;;36.50;33.40;;;;;;4955375;28;20881;-71
2022/07/14 13:08:29;;;;;;;0.70;0.50;;;36.60;33.10;;;;;;4954967;29;20536;-72
2022/07/14 13:10:57;;;;;;;0.70;0.50;;;36.70;32.50;;;;;;4955220;28;20545;-71
2022/07/14 13:13:33;;;;;;;0.70;0.50;;;36.40;33.20;;;;;;4955137;29;20942;-72
2022/07/14 13:16:19;;;;;;;1.10;0.70;;;36.30;33.60;;;;;;4955423;29;20871;-72
2022/07/14 13:19:02;;;;;;;0.60;0.50;;;36.20;33.20;;;;;;4955207;29;20439;-72
2022/07/14 13:21:59;;;;;;;0.70;0.70;;;36.20;33.70;;;;;;4955246;29;20521;-72
2022/07/14 13:24:28;;;;;;;1.30;0.60;;;36.20;34.00;;;;;;4955143;28;20509;-72
2022/07/14 13:27:03;;;;;;;0.83;0.63;;;36.00;33.20;;;;;;4955034;29;20934;-72
2022/07/14 13:29:31;;;;;;;1.07;0.57;;;35.80;33.30;;;;;;4955088;29;20434;-72
2022/07/14 13:31:58;;;;;;;0.60;0.50;;;35.50;33.10;;;;;;4954967;29;20466;-72
2022/07/14 13:34:26;;;;;;;0.70;0.60;;;35.50;32.90;;;;;;4954659;29;20455;-72
2022/07/14 13:36:54;;;;;;;0.90;0.60;;;35.40;33.40;;;;;;4955836;28;20560;-72
2022/07/14 13:39:21;;;;;;;0.73;0.50;;;35.30;33.90;;;;;;4958408;29;20845;-72
2022/07/14 13:41:48;;;;;;;2.37;0.60;;;35.40;33.20;;;;;;4958580;29;20528;-72
2022/07/14 13:44:17;;;;;;;0.70;0.60;;;35.40;33.30;;;;;;4958619;29;20482;-72
2022/07/14 13:46:45;;;;;;;0.70;0.50;;;35.40;33.60;;;;;;4958574;29;20453;-72
2022/07/14 13:49:11;;;;;;;0.60;0.60;;;35.20;33.90;;;;;;4958194;29;20954;-72
2022/07/14 13:54:22;;;;;;;0.70;0.50;;;35.30;34.90;;;;;;4958497;29;20905;-72
2022/07/14 13:56:50;;;;;;;0.70;0.70;;;35.60;34.20;;;;;;4958231;29;20496;-72
2022/07/14 13:59:17;;;;;;;0.70;0.60;;;35.90;34.20;;;;;;4958254;29;20454;-72
2022/07/14 14:01:45;;;;;;;0.70;0.60;;;36.10;33.70;;;;;;4957799;28;21056;-72
2022/07/14 14:04:13;;;;;;;0.87;0.60;;;36.30;34.00;;;;;;4958922;29;20458;-72
2022/07/14 14:06:41;;;;;;;0.70;0.50;;;36.60;33.60;;;;;;4958188;29;20450;-72
2022/07/14 14:09:09;;;;;;;0.70;0.50;;;36.30;33.20;;;;;;4958186;29;20509;-72
2022/07/14 14:11:37;;;;;;;0.70;0.60;;;35.90;33.40;;;;;;4958057;29;20470;-72
2022/07/14 14:14:04;;;;;;;0.70;0.57;;;35.70;33.90;;;;;;4958134;29;20450;-72
2022/07/14 14:16:31;;;;;;;0.70;0.60;;;35.60;34.00;;;;;;4957669;29;20447;-72
2022/07/14 14:18:59;;;;;;;0.70;0.50;;;35.50;34.30;;;;;;4958009;29;20450;-72
2022/07/14 14:21:27;;;;;;;0.60;0.50;;;35.60;34.20;;;;;;4957717;28;20467;-71
2022/07/14 14:23:55;;;;;;;1.30;0.60;;;35.80;34.80;;;;;;4957930;29;20451;-71
2022/07/14 14:26:22;;;;;;;0.90;0.60;;;35.90;35.10;;;;;;4957899;29;20460;-72
2022/07/14 14:28:48;;;;;;;0.70;0.60;;;36.00;34.80;;;;;;4957846;29;20457;-72
2022/07/14 14:31:15;;;;;;;0.83;0.60;;;36.30;34.20;;;;;;4957686;29;20474;-71
2022/07/14 14:33:42;;;;;;;0.60;0.60;;;36.30;33.70;;;;;;4957363;29;20948;-72
2022/07/14 14:36:10;;;;;;;0.70;0.50;;;36.20;34.40;;;;;;4957654;29;20446;-72
2022/07/14 14:38:37;;;;;;;0.70;0.60;;;36.40;33.90;;;;;;4957586;29;20478;-72
2022/07/14 14:41:03;;;;;;;0.80;0.70;;;36.50;33.80;;;;;;4957256;29;20985;-71
2022/07/14 14:43:30;;;;;;;0.70;0.60;;;36.40;34.00;;;;;;4957675;29;20446;-72
2022/07/14 14:45:57;;;;;;;0.70;0.60;;;36.40;33.60;;;;;;4957498;29;20450;-72
2022/07/14 14:48:24;;;;;;;0.63;0.50;;;36.20;33.60;;;;;;4956708;28;20494;-72
2022/07/14 14:50:50;;;;;;;0.70;0.60;;;36.20;34.40;;;;;;4957349;29;20473;-72
2022/07/14 14:53:18;;;;;;;0.70;0.60;;;36.10;33.80;;;;;;4957367;29;20450;-72
2022/07/14 14:55:45;;;;;;;0.60;0.60;;;36.10;34.40;;;;;;4957431;29;20450;-73
2022/07/14 14:58:12;;;;;;;0.70;0.60;;;36.30;34.70;;;;;;4957162;29;20478;-72
2022/07/14 15:00:39;;;;;;;0.70;0.60;;;36.40;34.50;;;;;;4957127;28;20861;-71
2022/07/14 15:03:05;;;;;;;0.70;0.53;;;36.50;34.20;;;;;;4957248;29;20450;-72
2022/07/14 15:05:32;;;;;;;0.60;0.57;;;36.40;34.00;;;;;;4957705;29;20454;-72
2022/07/14 15:07:59;;;;;;;0.70;0.50;;;36.30;34.10;;;;;;4957110;29;20446;-72
2022/07/14 15:10:27;;;;;;;0.70;0.60;;;36.10;34.30;;;;;;4957012;29;20454;-72
2022/07/14 15:12:53;;;;;;;0.70;0.60;;;36.00;34.70;;;;;;4957026;29;20505;-72
2022/07/14 15:15:20;;;;;;;0.70;0.60;;;35.90;34.80;;;;;;4958431;29;20458;-72
2022/07/14 15:17:47;;;;;;;0.70;0.57;;;35.70;34.90;;;;;;4956900;29;20489;-72
2022/07/14 15:20:14;;;;;;;0.70;0.60;;;35.70;35.10;;;;;;4956831;29;20516;-72
2022/07/14 15:22:41;;;;;;;0.70;0.50;;;35.40;35.10;;;;;;4956807;28;20553;-72
2022/07/14 15:25:08;;;;;;;0.70;0.60;;;35.20;35.80;;;;;;4956763;29;20513;-72
2022/07/14 15:27:36;;;;;;;0.67;0.50;;;34.90;36.30;;;;;;4956684;29;20478;-72
2022/07/14 15:30:03;;;;;;;1.30;0.90;;;34.70;36.90;;;;;;4957712;29;20458;-72
2022/07/14 15:32:30;;;;;;;0.80;0.70;;;34.70;36.70;;;;;;4956811;29;20477;-72
2022/07/14 15:34:57;;;;;;;0.90;0.50;;;34.70;37.20;;;;;;4956572;29;20454;-72
2022/07/14 15:37:23;;;;;;;0.77;0.67;;;34.70;37.20;;;;;;4956478;29;20533;-72
2022/07/14 15:42:36;;;;;;;0.70;0.50;;;35.00;36.80;;;;;;4956229;29;20441;-72
2022/07/14 15:45:03;;;;;;;0.70;0.70;;;35.00;37.30;;;;;;4956410;29;20528;-72
2022/07/14 15:47:30;;;;;;;0.60;0.60;;;35.10;37.10;;;;;;4956423;29;20442;-72
2022/07/14 15:49:56;;;;;;;0.70;0.57;;;35.20;37.30;;;;;;4956340;29;20505;-72
2022/07/14 15:52:23;;;;;;;0.70;0.60;;;35.10;37.60;;;;;;4955904;29;20498;-72
2022/07/14 15:54:50;;;;;;;0.70;0.60;;;35.10;37.30;;;;;;4955899;29;21021;-72
2022/07/14 15:57:17;;;;;;;0.70;0.60;;;35.00;37.40;;;;;;4955800;29;20942;-72
2022/07/14 15:59:45;;;;;;;0.67;0.50;;;34.80;37.80;;;;;;4955720;28;20549;-74
2022/07/14 16:02:12;;;;;;;1.13;0.70;;;34.70;37.90;;;;;;4955301;29;20537;-73
2022/07/14 16:04:39;;;;;;;0.90;0.63;;;34.80;38.00;;;;;;4956014;29;21009;-73
2022/07/14 16:07:06;;;;;;;0.80;0.60;;;34.90;38.00;;;;;;4956082;29;20502;-73
2022/07/14 16:09:33;;;;;;;0.70;0.60;;;34.90;37.80;;;;;;4956013;29;20447;-73
2022/07/14 16:11:59;;;;;;;0.60;0.60;;;34.80;37.70;;;;;;4955985;29;20471;-73